sensor_id;sensor_type;location;lat;lon;timestamp;P1;durP1;ratioP1;P2;durP2;ratioP2
44426;SDS011;30133;47.866;-4.222;2022-08-05T00:02:17;1.42;;;0.77;;
44426;SDS011;30133;47.866;-4.222;2022-08-05T00:04:43;1.17;;;0.80;;
44426;SDS011;30133;47.866;-4.222;2022-08-05T00:07:10;3.03;;;0.70;;
44426;SDS011;30133;47.866;-4.222;2022-08-05T00:09:36;1.85;;;0.80;;
44426;SDS011;30133;47.866;-4.222;2022-08-05T00:12:02;1.98;;;0.80;;
44426;SDS011;30133;47.866;-4.222;2022-08-05T00:14:28;0.82;;;0.65;;
44426;SDS011;30133;47.866;-4.222;2022-08-05T00:16:54;3.13;;;1.83;;
44426;SDS011;30133;47.866;-4.222;2022-08-05T00:19:21;1.05;;;0.70;;
44426;SDS011;30133;47.866;-4.222;2022-08-05T00:21:48;2.95;;;0.70;;
44426;SDS011;30133;47.866;-4.222;2022-08-05T00:24:21;0.80;;;0.75;;
44426;SDS011;30133;47.866;-4.222;2022-08-05T00:26:47;1.15;;;0.75;;
44426;SDS011;30133;47.866;-4.222;2022-08-05T00:29:13;1.52;;;0.55;;
44426;SDS011;30133;47.866;-4.222;2022-08-05T00:31:39;1.00;;;0.75;;
44426;SDS011;30133;47.866;-4.222;2022-08-05T00:34:05;1.63;;;0.65;;
44426;SDS011;30133;47.866;-4.222;2022-08-05T00:36:31;1.60;;;1.20;;
44426;SDS011;30133;47.866;-4.222;2022-08-05T00:38:57;0.65;;;0.50;;
44426;SDS011;30133;47.866;-4.222;2022-08-05T00:41:27;0.68;;;0.50;;
44426;SDS011;30133;47.866;-4.222;2022-08-05T00:43:58;0.80;;;0.60;;
44426;SDS011;30133;47.866;-4.222;2022-08-05T00:46:25;2.58;;;1.10;;
44426;SDS011;30133;47.866;-4.222;2022-08-05T00:48:51;0.90;;;0.70;;
44426;SDS011;30133;47.866;-4.222;2022-08-05T00:51:20;1.38;;;0.60;;
44426;SDS011;30133;47.866;-4.222;2022-08-05T00:53:48;1.48;;;0.73;;
44426;SDS011;30133;47.866;-4.222;2022-08-05T00:56:15;2.60;;;0.80;;
44426;SDS011;30133;47.866;-4.222;2022-08-05T00:58:42;1.10;;;0.50;;
44426;SDS011;30133;47.866;-4.222;2022-08-05T01:01:09;2.47;;;0.90;;
44426;SDS011;30133;47.866;-4.222;2022-08-05T01:03:37;1.80;;;0.68;;
44426;SDS011;30133;47.866;-4.222;2022-08-05T01:06:04;2.28;;;0.70;;
44426;SDS011;30133;47.866;-4.222;2022-08-05T01:08:31;1.52;;;0.70;;
44426;SDS011;30133;47.866;-4.222;2022-08-05T01:11:00;0.90;;;0.60;;
44426;SDS011;30133;47.866;-4.222;2022-08-05T01:16:24;0.68;;;0.57;;
44426;SDS011;30133;47.866;-4.222;2022-08-05T01:19:50;1.48;;;0.75;;
44426;SDS011;30133;47.866;-4.222;2022-08-05T01:28:15;0.70;;;0.70;;
44426;SDS011;30133;47.866;-4.222;2022-08-05T01:31:32;1.10;;;0.88;;
44426;SDS011;30133;47.866;-4.222;2022-08-05T01:34:24;1.30;;;0.60;;
44426;SDS011;30133;47.866;-4.222;2022-08-05T01:37:15;0.88;;;0.60;;
44426;SDS011;30133;47.866;-4.222;2022-08-05T01:40:09;0.70;;;0.43;;
44426;SDS011;30133;47.866;-4.222;2022-08-05T01:42:37;1.50;;;0.90;;
44426;SDS011;30133;47.866;-4.222;2022-08-05T01:45:05;0.88;;;0.63;;
44426;SDS011;30133;47.866;-4.222;2022-08-05T01:47:33;1.05;;;0.65;;
44426;SDS011;30133;47.866;-4.222;2022-08-05T01:50:05;2.88;;;0.50;;
44426;SDS011;30133;47.866;-4.222;2022-08-05T01:52:36;4.10;;;0.73;;
44426;SDS011;30133;47.866;-4.222;2022-08-05T01:55:05;1.00;;;0.60;;
44426;SDS011;30133;47.866;-4.222;2022-08-05T01:57:37;3.15;;;0.95;;
44426;SDS011;30133;47.866;-4.222;2022-08-05T02:00:06;1.75;;;0.80;;
44426;SDS011;30133;47.866;-4.222;2022-08-05T02:02:39;1.40;;;0.82;;
44426;SDS011;30133;47.866;-4.222;2022-08-05T02:05:19;1.00;;;0.65;;
44426;SDS011;30133;47.866;-4.222;2022-08-05T02:07:53;1.35;;;0.73;;
44426;SDS011;30133;47.866;-4.222;2022-08-05T02:10:21;1.25;;;0.90;;
44426;SDS011;30133;47.866;-4.222;2022-08-05T02:12:53;0.57;;;0.55;;
44426;SDS011;30133;47.866;-4.222;2022-08-05T02:15:33;0.45;;;0.45;;
44426;SDS011;30133;47.866;-4.222;2022-08-05T02:18:17;1.17;;;0.52;;
44426;SDS011;30133;47.866;-4.222;2022-08-05T02:23:29;0.73;;;0.50;;
44426;SDS011;30133;47.866;-4.222;2022-08-05T02:26:05;0.60;;;0.50;;
44426;SDS011;30133;47.866;-4.222;2022-08-05T02:28:36;1.10;;;0.82;;
44426;SDS011;30133;47.866;-4.222;2022-08-05T02:31:16;1.15;;;0.50;;
44426;SDS011;30133;47.866;-4.222;2022-08-05T02:33:56;1.58;;;0.60;;
44426;SDS011;30133;47.866;-4.222;2022-08-05T02:36:28;2.03;;;0.60;;
44426;SDS011;30133;47.866;-4.222;2022-08-05T02:38:56;0.73;;;0.65;;
44426;SDS011;30133;47.866;-4.222;2022-08-05T02:41:24;1.10;;;0.80;;
44426;SDS011;30133;47.866;-4.222;2022-08-05T02:43:51;1.85;;;0.68;;
44426;SDS011;30133;47.866;-4.222;2022-08-05T02:46:20;0.65;;;0.47;;
44426;SDS011;30133;47.866;-4.222;2022-08-05T02:48:47;0.95;;;0.52;;
44426;SDS011;30133;47.866;-4.222;2022-08-05T02:51:15;1.73;;;0.60;;
44426;SDS011;30133;47.866;-4.222;2022-08-05T02:53:42;0.98;;;0.70;;
44426;SDS011;30133;47.866;-4.222;2022-08-05T02:56:09;1.88;;;1.17;;
44426;SDS011;30133;47.866;-4.222;2022-08-05T02:58:38;0.98;;;0.50;;
44426;SDS011;30133;47.866;-4.222;2022-08-05T03:01:05;0.82;;;0.60;;
44426;SDS011;30133;47.866;-4.222;2022-08-05T03:03:37;0.90;;;0.63;;
44426;SDS011;30133;47.866;-4.222;2022-08-05T03:06:06;1.52;;;0.52;;
44426;SDS011;30133;47.866;-4.222;2022-08-05T03:08:36;0.47;;;0.47;;
44426;SDS011;30133;47.866;-4.222;2022-08-05T03:11:14;0.70;;;0.55;;
44426;SDS011;30133;47.866;-4.222;2022-08-05T03:13:49;1.13;;;0.60;;
44426;SDS011;30133;47.866;-4.222;2022-08-05T03:16:16;0.95;;;0.60;;
44426;SDS011;30133;47.866;-4.222;2022-08-05T03:18:42;0.40;;;0.32;;
44426;SDS011;30133;47.866;-4.222;2022-08-05T03:21:08;1.20;;;0.52;;
44426;SDS011;30133;47.866;-4.222;2022-08-05T03:23:36;1.10;;;0.60;;
44426;SDS011;30133;47.866;-4.222;2022-08-05T03:26:11;0.82;;;0.60;;
44426;SDS011;30133;47.866;-4.222;2022-08-05T03:28:37;1.85;;;0.70;;
44426;SDS011;30133;47.866;-4.222;2022-08-05T03:31:03;1.92;;;0.88;;
44426;SDS011;30133;47.866;-4.222;2022-08-05T03:33:30;2.17;;;0.60;;
44426;SDS011;30133;47.866;-4.222;2022-08-05T03:35:56;1.13;;;0.60;;
44426;SDS011;30133;47.866;-4.222;2022-08-05T03:38:24;1.50;;;0.75;;
44426;SDS011;30133;47.866;-4.222;2022-08-05T03:40:51;1.17;;;0.70;;
44426;SDS011;30133;47.866;-4.222;2022-08-05T03:43:19;1.23;;;0.57;;
44426;SDS011;30133;47.866;-4.222;2022-08-05T03:45:49;2.55;;;0.60;;
44426;SDS011;30133;47.866;-4.222;2022-08-05T03:48:18;0.52;;;0.50;;
44426;SDS011;30133;47.866;-4.222;2022-08-05T03:53:41;2.25;;;0.57;;
44426;SDS011;30133;47.866;-4.222;2022-08-05T03:56:31;0.85;;;0.57;;
44426;SDS011;30133;47.866;-4.222;2022-08-05T03:59:05;1.50;;;0.80;;
44426;SDS011;30133;47.866;-4.222;2022-08-05T04:01:35;0.95;;;0.65;;
44426;SDS011;30133;47.866;-4.222;2022-08-05T04:04:06;1.40;;;0.60;;
44426;SDS011;30133;47.866;-4.222;2022-08-05T04:06:34;0.82;;;0.43;;
44426;SDS011;30133;47.866;-4.222;2022-08-05T04:09:02;1.27;;;0.38;;
44426;SDS011;30133;47.866;-4.222;2022-08-05T04:11:30;0.80;;;0.43;;
44426;SDS011;30133;47.866;-4.222;2022-08-05T04:13:58;1.80;;;0.50;;
44426;SDS011;30133;47.866;-4.222;2022-08-05T04:16:24;1.70;;;0.63;;
44426;SDS011;30133;47.866;-4.222;2022-08-05T04:18:51;1.15;;;0.77;;
44426;SDS011;30133;47.866;-4.222;2022-08-05T04:21:18;2.17;;;0.50;;
44426;SDS011;30133;47.866;-4.222;2022-08-05T04:23:44;1.20;;;0.73;;
44426;SDS011;30133;47.866;-4.222;2022-08-05T04:26:10;0.57;;;0.55;;
44426;SDS011;30133;47.866;-4.222;2022-08-05T04:31:10;0.93;;;0.60;;
44426;SDS011;30133;47.866;-4.222;2022-08-05T04:33:36;0.98;;;0.70;;
44426;SDS011;30133;47.866;-4.222;2022-08-05T04:36:02;1.98;;;0.80;;
44426;SDS011;30133;47.866;-4.222;2022-08-05T04:38:28;1.55;;;0.93;;
44426;SDS011;30133;47.866;-4.222;2022-08-05T04:40:54;0.70;;;0.50;;
44426;SDS011;30133;47.866;-4.222;2022-08-05T04:43:20;2.60;;;0.90;;
44426;SDS011;30133;47.866;-4.222;2022-08-05T04:45:46;4.40;;;0.60;;
44426;SDS011;30133;47.866;-4.222;2022-08-05T04:48:13;1.88;;;0.82;;
44426;SDS011;30133;47.866;-4.222;2022-08-05T04:50:40;1.23;;;0.57;;
44426;SDS011;30133;47.866;-4.222;2022-08-05T04:53:09;0.50;;;0.40;;
44426;SDS011;30133;47.866;-4.222;2022-08-05T04:55:37;1.08;;;0.57;;
44426;SDS011;30133;47.866;-4.222;2022-08-05T04:58:04;1.25;;;0.90;;
44426;SDS011;30133;47.866;-4.222;2022-08-05T05:00:33;0.90;;;0.50;;
44426;SDS011;30133;47.866;-4.222;2022-08-05T05:03:01;0.47;;;0.47;;
44426;SDS011;30133;47.866;-4.222;2022-08-05T05:05:28;0.40;;;0.40;;
44426;SDS011;30133;47.866;-4.222;2022-08-05T05:07:56;0.90;;;0.70;;
44426;SDS011;30133;47.866;-4.222;2022-08-05T05:10:26;1.30;;;0.50;;
44426;SDS011;30133;47.866;-4.222;2022-08-05T05:12:57;2.90;;;0.50;;
44426;SDS011;30133;47.866;-4.222;2022-08-05T05:15:24;1.02;;;0.60;;
44426;SDS011;30133;47.866;-4.222;2022-08-05T05:17:51;1.50;;;0.73;;
44426;SDS011;30133;47.866;-4.222;2022-08-05T05:20:17;1.15;;;0.50;;
44426;SDS011;30133;47.866;-4.222;2022-08-05T05:22:42;0.50;;;0.50;;
44426;SDS011;30133;47.866;-4.222;2022-08-05T05:25:08;2.30;;;0.85;;
44426;SDS011;30133;47.866;-4.222;2022-08-05T05:27:35;0.93;;;0.73;;
44426;SDS011;30133;47.866;-4.222;2022-08-05T05:30:08;1.70;;;0.90;;
44426;SDS011;30133;47.866;-4.222;2022-08-05T05:32:35;0.57;;;0.45;;
44426;SDS011;30133;47.866;-4.222;2022-08-05T05:35:01;0.82;;;0.50;;
44426;SDS011;30133;47.866;-4.222;2022-08-05T05:37:27;1.65;;;0.70;;
44426;SDS011;30133;47.866;-4.222;2022-08-05T05:39:53;1.55;;;0.60;;
44426;SDS011;30133;47.866;-4.222;2022-08-05T05:42:19;1.98;;;0.90;;
44426;SDS011;30133;47.866;-4.222;2022-08-05T05:44:44;3.55;;;1.05;;
44426;SDS011;30133;47.866;-4.222;2022-08-05T05:47:10;0.50;;;0.50;;
44426;SDS011;30133;47.866;-4.222;2022-08-05T05:49:36;0.73;;;0.60;;
44426;SDS011;30133;47.866;-4.222;2022-08-05T05:52:10;3.33;;;0.57;;
44426;SDS011;30133;47.866;-4.222;2022-08-05T05:54:51;2.30;;;0.80;;
44426;SDS011;30133;47.866;-4.222;2022-08-05T05:57:23;1.70;;;0.80;;
44426;SDS011;30133;47.866;-4.222;2022-08-05T05:59:49;0.82;;;0.68;;
44426;SDS011;30133;47.866;-4.222;2022-08-05T06:02:15;0.73;;;0.52;;
44426;SDS011;30133;47.866;-4.222;2022-08-05T06:04:41;1.92;;;0.80;;
44426;SDS011;30133;47.866;-4.222;2022-08-05T06:07:07;0.70;;;0.47;;
44426;SDS011;30133;47.866;-4.222;2022-08-05T06:09:33;1.00;;;0.50;;
44426;SDS011;30133;47.866;-4.222;2022-08-05T06:11:59;2.60;;;0.50;;
44426;SDS011;30133;47.866;-4.222;2022-08-05T06:14:25;1.05;;;0.50;;
44426;SDS011;30133;47.866;-4.222;2022-08-05T06:16:52;1.20;;;0.77;;
44426;SDS011;30133;47.866;-4.222;2022-08-05T06:19:18;1.25;;;0.70;;
44426;SDS011;30133;47.866;-4.222;2022-08-05T06:21:44;1.00;;;0.60;;
44426;SDS011;30133;47.866;-4.222;2022-08-05T06:24:11;0.80;;;0.52;;
44426;SDS011;30133;47.866;-4.222;2022-08-05T06:26:37;1.05;;;0.70;;
44426;SDS011;30133;47.866;-4.222;2022-08-05T06:29:06;0.90;;;0.50;;
44426;SDS011;30133;47.866;-4.222;2022-08-05T06:31:32;1.10;;;0.75;;
44426;SDS011;30133;47.866;-4.222;2022-08-05T06:33:58;1.50;;;0.70;;
44426;SDS011;30133;47.866;-4.222;2022-08-05T06:36:24;2.13;;;0.80;;
44426;SDS011;30133;47.866;-4.222;2022-08-05T06:38:50;1.05;;;0.68;;
44426;SDS011;30133;47.866;-4.222;2022-08-05T06:41:18;0.90;;;0.50;;
44426;SDS011;30133;47.866;-4.222;2022-08-05T06:43:45;1.67;;;0.98;;
44426;SDS011;30133;47.866;-4.222;2022-08-05T06:46:12;1.38;;;0.63;;
44426;SDS011;30133;47.866;-4.222;2022-08-05T06:48:38;1.45;;;0.80;;
44426;SDS011;30133;47.866;-4.222;2022-08-05T06:51:04;2.80;;;1.02;;
44426;SDS011;30133;47.866;-4.222;2022-08-05T06:53:30;1.45;;;0.73;;
44426;SDS011;30133;47.866;-4.222;2022-08-05T06:55:57;1.38;;;0.60;;
44426;SDS011;30133;47.866;-4.222;2022-08-05T06:58:32;0.60;;;0.50;;
44426;SDS011;30133;47.866;-4.222;2022-08-05T07:00:58;2.03;;;0.70;;
44426;SDS011;30133;47.866;-4.222;2022-08-05T07:03:25;2.85;;;0.77;;
44426;SDS011;30133;47.866;-4.222;2022-08-05T07:05:53;1.33;;;0.60;;
44426;SDS011;30133;47.866;-4.222;2022-08-05T07:08:21;1.88;;;0.80;;
44426;SDS011;30133;47.866;-4.222;2022-08-05T07:10:47;1.48;;;0.88;;
44426;SDS011;30133;47.866;-4.222;2022-08-05T07:13:13;2.67;;;0.90;;
44426;SDS011;30133;47.866;-4.222;2022-08-05T07:15:58;2.25;;;0.90;;
44426;SDS011;30133;47.866;-4.222;2022-08-05T07:18:42;2.28;;;0.70;;
44426;SDS011;30133;47.866;-4.222;2022-08-05T07:21:08;3.22;;;0.68;;
44426;SDS011;30133;47.866;-4.222;2022-08-05T07:23:35;1.02;;;0.65;;
44426;SDS011;30133;47.866;-4.222;2022-08-05T07:26:01;1.48;;;0.77;;
44426;SDS011;30133;47.866;-4.222;2022-08-05T07:28:28;3.83;;;0.60;;
44426;SDS011;30133;47.866;-4.222;2022-08-05T07:30:54;2.08;;;0.70;;
44426;SDS011;30133;47.866;-4.222;2022-08-05T07:33:20;1.58;;;0.57;;
44426;SDS011;30133;47.866;-4.222;2022-08-05T07:35:47;4.93;;;0.80;;
44426;SDS011;30133;47.866;-4.222;2022-08-05T07:38:14;1.95;;;0.80;;
44426;SDS011;30133;47.866;-4.222;2022-08-05T07:40:41;3.05;;;1.77;;
44426;SDS011;30133;47.866;-4.222;2022-08-05T07:43:08;6.72;;;1.10;;
44426;SDS011;30133;47.866;-4.222;2022-08-05T07:45:35;5.53;;;0.90;;
44426;SDS011;30133;47.866;-4.222;2022-08-05T07:48:01;4.72;;;0.90;;
44426;SDS011;30133;47.866;-4.222;2022-08-05T07:50:28;1.00;;;0.63;;
44426;SDS011;30133;47.866;-4.222;2022-08-05T07:52:54;2.58;;;0.93;;
44426;SDS011;30133;47.866;-4.222;2022-08-05T07:55:20;1.85;;;0.63;;
44426;SDS011;30133;47.866;-4.222;2022-08-05T07:57:46;7.28;;;1.02;;
44426;SDS011;30133;47.866;-4.222;2022-08-05T08:00:18;3.33;;;1.17;;
44426;SDS011;30133;47.866;-4.222;2022-08-05T08:02:44;4.85;;;1.00;;
44426;SDS011;30133;47.866;-4.222;2022-08-05T08:05:10;1.92;;;0.75;;
44426;SDS011;30133;47.866;-4.222;2022-08-05T08:07:36;2.13;;;0.95;;
44426;SDS011;30133;47.866;-4.222;2022-08-05T08:10:03;9.45;;;1.52;;
44426;SDS011;30133;47.866;-4.222;2022-08-05T08:12:29;3.03;;;0.88;;
44426;SDS011;30133;47.866;-4.222;2022-08-05T08:14:55;5.93;;;1.55;;
44426;SDS011;30133;47.866;-4.222;2022-08-05T08:17:21;6.22;;;1.33;;
44426;SDS011;30133;47.866;-4.222;2022-08-05T08:19:47;22.25;;;2.00;;
44426;SDS011;30133;47.866;-4.222;2022-08-05T08:22:13;15.30;;;1.05;;
44426;SDS011;30133;47.866;-4.222;2022-08-05T08:24:39;4.75;;;1.52;;
44426;SDS011;30133;47.866;-4.222;2022-08-05T08:27:05;1.70;;;0.88;;
44426;SDS011;30133;47.866;-4.222;2022-08-05T08:29:31;12.00;;;1.08;;
44426;SDS011;30133;47.866;-4.222;2022-08-05T08:31:57;4.20;;;0.90;;
44426;SDS011;30133;47.866;-4.222;2022-08-05T08:34:24;2.72;;;1.30;;
44426;SDS011;30133;47.866;-4.222;2022-08-05T08:36:51;11.55;;;1.77;;
44426;SDS011;30133;47.866;-4.222;2022-08-05T08:39:20;4.15;;;1.02;;
44426;SDS011;30133;47.866;-4.222;2022-08-05T08:41:47;4.60;;;1.27;;
44426;SDS011;30133;47.866;-4.222;2022-08-05T08:44:16;5.78;;;1.35;;
44426;SDS011;30133;47.866;-4.222;2022-08-05T08:46:44;3.25;;;0.90;;
44426;SDS011;30133;47.866;-4.222;2022-08-05T08:49:13;5.88;;;1.10;;
44426;SDS011;30133;47.866;-4.222;2022-08-05T08:51:41;2.50;;;0.82;;
44426;SDS011;30133;47.866;-4.222;2022-08-05T08:54:13;6.57;;;1.08;;
44426;SDS011;30133;47.866;-4.222;2022-08-05T08:56:39;4.03;;;0.80;;
44426;SDS011;30133;47.866;-4.222;2022-08-05T08:59:05;2.75;;;1.00;;
44426;SDS011;30133;47.866;-4.222;2022-08-05T09:01:38;12.55;;;1.25;;
44426;SDS011;30133;47.866;-4.222;2022-08-05T09:04:06;8.82;;;1.25;;
44426;SDS011;30133;47.866;-4.222;2022-08-05T09:06:32;7.55;;;1.60;;
44426;SDS011;30133;47.866;-4.222;2022-08-05T09:09:00;1.85;;;0.80;;
44426;SDS011;30133;47.866;-4.222;2022-08-05T09:11:27;3.78;;;1.30;;
44426;SDS011;30133;47.866;-4.222;2022-08-05T09:13:54;8.18;;;1.55;;
44426;SDS011;30133;47.866;-4.222;2022-08-05T09:16:20;1.80;;;0.60;;
44426;SDS011;30133;47.866;-4.222;2022-08-05T09:18:46;14.93;;;1.45;;
44426;SDS011;30133;47.866;-4.222;2022-08-05T09:21:14;9.45;;;1.40;;
44426;SDS011;30133;47.866;-4.222;2022-08-05T09:23:40;11.00;;;2.10;;
44426;SDS011;30133;47.866;-4.222;2022-08-05T09:26:10;2.67;;;0.88;;
44426;SDS011;30133;47.866;-4.222;2022-08-05T09:28:43;2.40;;;0.93;;
44426;SDS011;30133;47.866;-4.222;2022-08-05T09:31:12;7.30;;;1.23;;
44426;SDS011;30133;47.866;-4.222;2022-08-05T09:36:44;5.93;;;1.00;;
44426;SDS011;30133;47.866;-4.222;2022-08-05T09:39:17;2.65;;;0.70;;
44426;SDS011;30133;47.866;-4.222;2022-08-05T09:42:00;7.63;;;1.10;;
44426;SDS011;30133;47.866;-4.222;2022-08-05T09:47:08;6.20;;;1.20;;
44426;SDS011;30133;47.866;-4.222;2022-08-05T09:52:31;2.28;;;1.08;;
44426;SDS011;30133;47.866;-4.222;2022-08-05T09:55:04;3.35;;;1.08;;
44426;SDS011;30133;47.866;-4.222;2022-08-05T09:57:43;5.43;;;1.52;;
44426;SDS011;30133;47.866;-4.222;2022-08-05T10:02:56;8.57;;;1.25;;
44426;SDS011;30133;47.866;-4.222;2022-08-05T10:05:23;12.32;;;1.08;;
44426;SDS011;30133;47.866;-4.222;2022-08-05T10:07:58;7.03;;;1.00;;
44426;SDS011;30133;47.866;-4.222;2022-08-05T10:10:45;13.00;;;1.50;;
44426;SDS011;30133;47.866;-4.222;2022-08-05T10:15:58;9.82;;;1.02;;
44426;SDS011;30133;47.866;-4.222;2022-08-05T10:18:25;2.65;;;0.85;;
44426;SDS011;30133;47.866;-4.222;2022-08-05T10:20:56;11.20;;;1.08;;
44426;SDS011;30133;47.866;-4.222;2022-08-05T10:23:30;8.80;;;1.10;;
44426;SDS011;30133;47.866;-4.222;2022-08-05T10:26:02;2.03;;;0.88;;
44426;SDS011;30133;47.866;-4.222;2022-08-05T10:28:31;5.18;;;1.10;;
44426;SDS011;30133;47.866;-4.222;2022-08-05T10:30:58;6.25;;;1.17;;
44426;SDS011;30133;47.866;-4.222;2022-08-05T10:33:27;3.58;;;1.33;;
44426;SDS011;30133;47.866;-4.222;2022-08-05T10:35:56;7.43;;;2.55;;
44426;SDS011;30133;47.866;-4.222;2022-08-05T10:38:25;6.65;;;1.08;;
44426;SDS011;30133;47.866;-4.222;2022-08-05T10:46:20;6.78;;;1.25;;
44426;SDS011;30133;47.866;-4.222;2022-08-05T10:48:47;7.18;;;1.02;;
44426;SDS011;30133;47.866;-4.222;2022-08-05T10:56:18;7.97;;;1.20;;
44426;SDS011;30133;47.866;-4.222;2022-08-05T10:58:48;2.75;;;1.00;;
44426;SDS011;30133;47.866;-4.222;2022-08-05T11:01:17;8.98;;;1.45;;
44426;SDS011;30133;47.866;-4.222;2022-08-05T11:04:21;3.83;;;0.77;;
44426;SDS011;30133;47.866;-4.222;2022-08-05T11:09:25;3.20;;;1.23;;
44426;SDS011;30133;47.866;-4.222;2022-08-05T11:11:53;2.08;;;0.80;;
44426;SDS011;30133;47.866;-4.222;2022-08-05T11:14:24;5.88;;;1.17;;
44426;SDS011;30133;47.866;-4.222;2022-08-05T11:19:51;8.48;;;1.58;;
44426;SDS011;30133;47.866;-4.222;2022-08-05T11:25:31;1.40;;;0.85;;
44426;SDS011;30133;47.866;-4.222;2022-08-05T11:33:24;2.40;;;0.93;;
44426;SDS011;30133;47.866;-4.222;2022-08-05T11:36:09;4.22;;;1.60;;
44426;SDS011;30133;47.866;-4.222;2022-08-05T11:44:05;2.60;;;0.90;;
44426;SDS011;30133;47.866;-4.222;2022-08-05T11:46:46;3.45;;;1.50;;
44426;SDS011;30133;47.866;-4.222;2022-08-05T11:49:18;2.92;;;0.90;;
44426;SDS011;30133;47.866;-4.222;2022-08-05T11:51:49;3.30;;;0.95;;
44426;SDS011;30133;47.866;-4.222;2022-08-05T11:54:22;2.70;;;1.10;;
44426;SDS011;30133;47.866;-4.222;2022-08-05T11:56:58;1.15;;;0.80;;
44426;SDS011;30133;47.866;-4.222;2022-08-05T11:59:27;2.00;;;0.80;;
44426;SDS011;30133;47.866;-4.222;2022-08-05T12:01:58;1.58;;;0.80;;
44426;SDS011;30133;47.866;-4.222;2022-08-05T12:04:38;1.15;;;0.80;;
44426;SDS011;30133;47.866;-4.222;2022-08-05T12:07:10;4.75;;;1.30;;
44426;SDS011;30133;47.866;-4.222;2022-08-05T12:09:46;3.70;;;1.23;;
44426;SDS011;30133;47.866;-4.222;2022-08-05T12:12:25;6.43;;;0.85;;
44426;SDS011;30133;47.866;-4.222;2022-08-05T12:14:53;4.30;;;1.23;;
44426;SDS011;30133;47.866;-4.222;2022-08-05T12:17:19;1.67;;;1.20;;
44426;SDS011;30133;47.866;-4.222;2022-08-05T12:19:46;1.48;;;0.85;;
44426;SDS011;30133;47.866;-4.222;2022-08-05T12:22:17;3.08;;;0.93;;
44426;SDS011;30133;47.866;-4.222;2022-08-05T12:24:50;1.90;;;0.90;;
44426;SDS011;30133;47.866;-4.222;2022-08-05T12:27:23;2.90;;;1.00;;
44426;SDS011;30133;47.866;-4.222;2022-08-05T12:30:04;4.45;;;1.10;;
44426;SDS011;30133;47.866;-4.222;2022-08-05T12:32:33;2.25;;;0.98;;
44426;SDS011;30133;47.866;-4.222;2022-08-05T12:35:11;2.20;;;1.10;;
44426;SDS011;30133;47.866;-4.222;2022-08-05T12:37:44;2.70;;;1.10;;
44426;SDS011;30133;47.866;-4.222;2022-08-05T12:40:11;7.68;;;0.90;;
44426;SDS011;30133;47.866;-4.222;2022-08-05T12:42:38;3.28;;;1.27;;
44426;SDS011;30133;47.866;-4.222;2022-08-05T12:45:05;1.80;;;0.95;;
44426;SDS011;30133;47.866;-4.222;2022-08-05T12:47:34;5.03;;;1.10;;
44426;SDS011;30133;47.866;-4.222;2022-08-05T12:50:11;1.98;;;1.00;;
44426;SDS011;30133;47.866;-4.222;2022-08-05T12:52:41;1.83;;;0.57;;
44426;SDS011;30133;47.866;-4.222;2022-08-05T12:55:27;1.80;;;0.70;;
44426;SDS011;30133;47.866;-4.222;2022-08-05T12:57:56;2.17;;;0.90;;
44426;SDS011;30133;47.866;-4.222;2022-08-05T13:00:24;1.42;;;1.00;;
44426;SDS011;30133;47.866;-4.222;2022-08-05T13:02:54;1.98;;;1.00;;
44426;SDS011;30133;47.866;-4.222;2022-08-05T13:05:27;10.43;;;1.23;;
44426;SDS011;30133;47.866;-4.222;2022-08-05T13:07:57;2.05;;;1.02;;
44426;SDS011;30133;47.866;-4.222;2022-08-05T13:10:23;5.78;;;1.15;;
44426;SDS011;30133;47.866;-4.222;2022-08-05T13:12:49;3.83;;;1.10;;
44426;SDS011;30133;47.866;-4.222;2022-08-05T13:15:17;10.23;;;1.63;;
44426;SDS011;30133;47.866;-4.222;2022-08-05T13:17:51;3.00;;;1.38;;
44426;SDS011;30133;47.866;-4.222;2022-08-05T13:20:19;6.15;;;1.30;;
44426;SDS011;30133;47.866;-4.222;2022-08-05T13:22:47;2.33;;;1.20;;
44426;SDS011;30133;47.866;-4.222;2022-08-05T13:25:18;2.50;;;1.20;;
44426;SDS011;30133;47.866;-4.222;2022-08-05T13:27:48;3.70;;;1.55;;
44426;SDS011;30133;47.866;-4.222;2022-08-05T13:30:21;10.50;;;1.40;;
44426;SDS011;30133;47.866;-4.222;2022-08-05T13:32:49;3.72;;;1.00;;
44426;SDS011;30133;47.866;-4.222;2022-08-05T13:35:17;6.28;;;1.08;;
44426;SDS011;30133;47.866;-4.222;2022-08-05T13:37:44;3.55;;;1.10;;
44426;SDS011;30133;47.866;-4.222;2022-08-05T13:40:12;7.35;;;1.17;;
44426;SDS011;30133;47.866;-4.222;2022-08-05T13:42:39;5.88;;;1.20;;
44426;SDS011;30133;47.866;-4.222;2022-08-05T13:45:07;2.50;;;1.00;;
44426;SDS011;30133;47.866;-4.222;2022-08-05T13:47:34;5.82;;;1.08;;
44426;SDS011;30133;47.866;-4.222;2022-08-05T13:50:01;9.63;;;1.23;;
44426;SDS011;30133;47.866;-4.222;2022-08-05T13:52:34;6.38;;;1.10;;
44426;SDS011;30133;47.866;-4.222;2022-08-05T13:55:00;3.67;;;1.10;;
44426;SDS011;30133;47.866;-4.222;2022-08-05T13:57:27;2.47;;;1.20;;
44426;SDS011;30133;47.866;-4.222;2022-08-05T13:59:53;5.07;;;1.20;;
44426;SDS011;30133;47.866;-4.222;2022-08-05T14:02:19;2.53;;;1.27;;
44426;SDS011;30133;47.866;-4.222;2022-08-05T14:04:46;6.85;;;1.73;;
44426;SDS011;30133;47.866;-4.222;2022-08-05T14:07:39;3.70;;;1.35;;
44426;SDS011;30133;47.866;-4.222;2022-08-05T14:12:40;7.82;;;1.45;;
44426;SDS011;30133;47.866;-4.222;2022-08-05T14:15:07;4.00;;;1.52;;
44426;SDS011;30133;47.866;-4.222;2022-08-05T14:17:34;8.85;;;1.30;;
44426;SDS011;30133;47.866;-4.222;2022-08-05T14:20:00;4.55;;;1.35;;
44426;SDS011;30133;47.866;-4.222;2022-08-05T14:22:26;7.22;;;1.25;;
44426;SDS011;30133;47.866;-4.222;2022-08-05T14:24:52;5.00;;;2.22;;
44426;SDS011;30133;47.866;-4.222;2022-08-05T14:27:18;6.03;;;2.20;;
44426;SDS011;30133;47.866;-4.222;2022-08-05T14:29:44;4.85;;;1.52;;
44426;SDS011;30133;47.866;-4.222;2022-08-05T14:32:10;9.32;;;1.20;;
44426;SDS011;30133;47.866;-4.222;2022-08-05T14:34:35;4.78;;;2.05;;
44426;SDS011;30133;47.866;-4.222;2022-08-05T14:37:02;6.07;;;1.70;;
44426;SDS011;30133;47.866;-4.222;2022-08-05T14:39:28;10.73;;;1.88;;
44426;SDS011;30133;47.866;-4.222;2022-08-05T14:41:55;6.90;;;1.67;;
44426;SDS011;30133;47.866;-4.222;2022-08-05T14:44:21;7.47;;;1.77;;
44426;SDS011;30133;47.866;-4.222;2022-08-05T14:46:47;4.47;;;1.45;;
44426;SDS011;30133;47.866;-4.222;2022-08-05T14:49:13;11.60;;;1.08;;
44426;SDS011;30133;47.866;-4.222;2022-08-05T14:51:40;3.58;;;1.23;;
44426;SDS011;30133;47.866;-4.222;2022-08-05T14:54:06;3.30;;;1.33;;
44426;SDS011;30133;47.866;-4.222;2022-08-05T14:56:32;10.77;;;1.52;;
44426;SDS011;30133;47.866;-4.222;2022-08-05T14:58:59;6.40;;;1.58;;
44426;SDS011;30133;47.866;-4.222;2022-08-05T15:01:25;3.47;;;1.30;;
44426;SDS011;30133;47.866;-4.222;2022-08-05T15:03:52;9.38;;;1.90;;
44426;SDS011;30133;47.866;-4.222;2022-08-05T15:06:26;8.15;;;1.55;;
44426;SDS011;30133;47.866;-4.222;2022-08-05T15:08:59;11.65;;;1.52;;
44426;SDS011;30133;47.866;-4.222;2022-08-05T15:11:25;13.30;;;2.53;;
44426;SDS011;30133;47.866;-4.222;2022-08-05T15:13:54;10.50;;;1.75;;
44426;SDS011;30133;47.866;-4.222;2022-08-05T15:16:20;6.32;;;1.42;;
44426;SDS011;30133;47.866;-4.222;2022-08-05T15:18:46;3.03;;;1.50;;
44426;SDS011;30133;47.866;-4.222;2022-08-05T15:21:11;7.35;;;1.70;;
44426;SDS011;30133;47.866;-4.222;2022-08-05T15:23:37;7.60;;;1.42;;
44426;SDS011;30133;47.866;-4.222;2022-08-05T15:26:03;7.78;;;1.35;;
44426;SDS011;30133;47.866;-4.222;2022-08-05T15:28:29;4.60;;;1.25;;
44426;SDS011;30133;47.866;-4.222;2022-08-05T15:30:55;3.75;;;1.23;;
44426;SDS011;30133;47.866;-4.222;2022-08-05T15:33:23;6.15;;;1.80;;
44426;SDS011;30133;47.866;-4.222;2022-08-05T15:35:54;8.93;;;1.73;;
44426;SDS011;30133;47.866;-4.222;2022-08-05T15:38:20;7.97;;;2.00;;
44426;SDS011;30133;47.866;-4.222;2022-08-05T15:40:46;7.80;;;2.58;;
44426;SDS011;30133;47.866;-4.222;2022-08-05T15:43:14;5.13;;;1.50;;
44426;SDS011;30133;47.866;-4.222;2022-08-05T15:45:43;7.03;;;1.70;;
44426;SDS011;30133;47.866;-4.222;2022-08-05T15:48:09;6.38;;;1.52;;
44426;SDS011;30133;47.866;-4.222;2022-08-05T15:50:37;4.20;;;1.67;;